sensor_id;sensor_type;location;lat;lon;timestamp;P1;durP1;ratioP1;P2;durP2;ratioP2
19519;SDS011;9904;52.246;20.898;2023-02-26T00:00:05;4.07;;;2.33;;
19519;SDS011;9904;52.246;20.898;2023-02-26T00:02:35;4.47;;;2.67;;
19519;SDS011;9904;52.246;20.898;2023-02-26T00:05:02;5.20;;;2.93;;
19519;SDS011;9904;52.246;20.898;2023-02-26T00:07:30;4.47;;;2.23;;
19519;SDS011;9904;52.246;20.898;2023-02-26T00:09:57;5.57;;;2.20;;
19519;SDS011;9904;52.246;20.898;2023-02-26T00:12:24;4.20;;;2.60;;
19519;SDS011;9904;52.246;20.898;2023-02-26T00:14:51;3.57;;;2.00;;
19519;SDS011;9904;52.246;20.898;2023-02-26T00:19:56;5.03;;;2.50;;
19519;SDS011;9904;52.246;20.898;2023-02-26T00:22:23;5.53;;;2.47;;
19519;SDS011;9904;52.246;20.898;2023-02-26T00:24:50;3.70;;;2.27;;
19519;SDS011;9904;52.246;20.898;2023-02-26T00:27:17;4.57;;;2.37;;
19519;SDS011;9904;52.246;20.898;2023-02-26T00:29:44;4.73;;;2.17;;
19519;SDS011;9904;52.246;20.898;2023-02-26T00:32:11;5.33;;;2.70;;
19519;SDS011;9904;52.246;20.898;2023-02-26T00:34:38;3.63;;;2.00;;
19519;SDS011;9904;52.246;20.898;2023-02-26T00:42:42;3.90;;;2.10;;
19519;SDS011;9904;52.246;20.898;2023-02-26T00:45:09;3.60;;;2.10;;
19519;SDS011;9904;52.246;20.898;2023-02-26T00:50:26;3.33;;;1.90;;
19519;SDS011;9904;52.246;20.898;2023-02-26T00:55:42;3.70;;;1.90;;
19519;SDS011;9904;52.246;20.898;2023-02-26T00:58:08;3.70;;;1.90;;
19519;SDS011;9904;52.246;20.898;2023-02-26T01:00:35;3.83;;;2.10;;
19519;SDS011;9904;52.246;20.898;2023-02-26T01:03:02;4.03;;;2.13;;
19519;SDS011;9904;52.246;20.898;2023-02-26T01:05:29;4.17;;;2.17;;
19519;SDS011;9904;52.246;20.898;2023-02-26T01:10:38;3.83;;;2.00;;
19519;SDS011;9904;52.246;20.898;2023-02-26T01:13:05;3.30;;;1.83;;
19519;SDS011;9904;52.246;20.898;2023-02-26T01:15:32;4.87;;;2.40;;
19519;SDS011;9904;52.246;20.898;2023-02-26T01:20:30;2.80;;;1.87;;
19519;SDS011;9904;52.246;20.898;2023-02-26T01:23:03;2.97;;;1.90;;
19519;SDS011;9904;52.246;20.898;2023-02-26T01:25:40;4.37;;;2.03;;
19519;SDS011;9904;52.246;20.898;2023-02-26T01:28:10;5.27;;;3.03;;
19519;SDS011;9904;52.246;20.898;2023-02-26T01:30:36;5.60;;;2.30;;
19519;SDS011;9904;52.246;20.898;2023-02-26T01:33:12;8.60;;;4.40;;
19519;SDS011;9904;52.246;20.898;2023-02-26T01:35:49;7.77;;;3.93;;
19519;SDS011;9904;52.246;20.898;2023-02-26T01:43:57;3.90;;;2.33;;
19519;SDS011;9904;52.246;20.898;2023-02-26T01:46:36;4.37;;;2.47;;
19519;SDS011;9904;52.246;20.898;2023-02-26T01:49:13;5.83;;;2.47;;
19519;SDS011;9904;52.246;20.898;2023-02-26T01:54:13;4.17;;;2.40;;
19519;SDS011;9904;52.246;20.898;2023-02-26T01:56:40;4.30;;;2.43;;
19519;SDS011;9904;52.246;20.898;2023-02-26T01:59:08;5.03;;;2.83;;
19519;SDS011;9904;52.246;20.898;2023-02-26T02:01:35;5.20;;;2.67;;
19519;SDS011;9904;52.246;20.898;2023-02-26T02:04:03;4.43;;;2.80;;
19519;SDS011;9904;52.246;20.898;2023-02-26T02:06:30;6.33;;;2.70;;
19519;SDS011;9904;52.246;20.898;2023-02-26T02:08:56;4.20;;;2.43;;
19519;SDS011;9904;52.246;20.898;2023-02-26T02:11:23;5.03;;;2.80;;
19519;SDS011;9904;52.246;20.898;2023-02-26T02:17:09;4.70;;;3.00;;
19519;SDS011;9904;52.246;20.898;2023-02-26T02:30:12;5.80;;;2.33;;
19519;SDS011;9904;52.246;20.898;2023-02-26T02:33:15;4.83;;;2.70;;
19519;SDS011;9904;52.246;20.898;2023-02-26T02:36:07;4.27;;;2.73;;
19519;SDS011;9904;52.246;20.898;2023-02-26T02:38:40;4.43;;;2.67;;
19519;SDS011;9904;52.246;20.898;2023-02-26T02:41:19;4.30;;;2.37;;
19519;SDS011;9904;52.246;20.898;2023-02-26T02:43:49;7.40;;;2.97;;
19519;SDS011;9904;52.246;20.898;2023-02-26T02:46:18;4.90;;;2.50;;
19519;SDS011;9904;52.246;20.898;2023-02-26T02:48:58;4.90;;;2.77;;
19519;SDS011;9904;52.246;20.898;2023-02-26T02:56:53;5.33;;;2.40;;
19519;SDS011;9904;52.246;20.898;2023-02-26T02:59:29;4.13;;;2.50;;
19519;SDS011;9904;52.246;20.898;2023-02-26T03:02:20;4.90;;;2.63;;
19519;SDS011;9904;52.246;20.898;2023-02-26T03:04:49;4.10;;;2.20;;
19519;SDS011;9904;52.246;20.898;2023-02-26T03:07:15;4.03;;;2.20;;
19519;SDS011;9904;52.246;20.898;2023-02-26T03:09:42;4.43;;;2.40;;
19519;SDS011;9904;52.246;20.898;2023-02-26T03:12:08;4.53;;;2.60;;
19519;SDS011;9904;52.246;20.898;2023-02-26T03:14:35;4.37;;;2.53;;
19519;SDS011;9904;52.246;20.898;2023-02-26T03:17:11;3.70;;;2.47;;
19519;SDS011;9904;52.246;20.898;2023-02-26T03:23:10;7.07;;;2.70;;
19519;SDS011;9904;52.246;20.898;2023-02-26T03:25:45;3.83;;;2.10;;
19519;SDS011;9904;52.246;20.898;2023-02-26T03:28:24;4.77;;;2.90;;
19519;SDS011;9904;52.246;20.898;2023-02-26T03:36:32;5.40;;;2.53;;
19519;SDS011;9904;52.246;20.898;2023-02-26T03:44:32;5.57;;;2.80;;
19519;SDS011;9904;52.246;20.898;2023-02-26T03:47:09;5.13;;;3.03;;
19519;SDS011;9904;52.246;20.898;2023-02-26T03:49:40;6.00;;;3.30;;
19519;SDS011;9904;52.246;20.898;2023-02-26T03:52:09;5.37;;;3.00;;
19519;SDS011;9904;52.246;20.898;2023-02-26T03:54:48;5.10;;;2.70;;
19519;SDS011;9904;52.246;20.898;2023-02-26T03:57:20;7.07;;;3.00;;
19519;SDS011;9904;52.246;20.898;2023-02-26T03:59:47;6.17;;;2.70;;
19519;SDS011;9904;52.246;20.898;2023-02-26T04:02:15;4.07;;;2.10;;
19519;SDS011;9904;52.246;20.898;2023-02-26T04:04:48;5.00;;;2.90;;
19519;SDS011;9904;52.246;20.898;2023-02-26T04:07:18;4.43;;;2.37;;
19519;SDS011;9904;52.246;20.898;2023-02-26T04:09:46;4.33;;;2.70;;
19519;SDS011;9904;52.246;20.898;2023-02-26T04:12:14;4.57;;;2.57;;
19519;SDS011;9904;52.246;20.898;2023-02-26T04:14:46;4.77;;;2.47;;
19519;SDS011;9904;52.246;20.898;2023-02-26T04:17:12;5.97;;;2.63;;
19519;SDS011;9904;52.246;20.898;2023-02-26T04:19:39;5.47;;;2.67;;
19519;SDS011;9904;52.246;20.898;2023-02-26T04:22:05;3.97;;;2.67;;
19519;SDS011;9904;52.246;20.898;2023-02-26T04:24:32;5.33;;;2.67;;
19519;SDS011;9904;52.246;20.898;2023-02-26T04:26:59;4.73;;;2.57;;
19519;SDS011;9904;52.246;20.898;2023-02-26T04:29:25;4.13;;;2.63;;
19519;SDS011;9904;52.246;20.898;2023-02-26T04:31:52;5.03;;;2.73;;
19519;SDS011;9904;52.246;20.898;2023-02-26T04:34:19;5.43;;;3.07;;
19519;SDS011;9904;52.246;20.898;2023-02-26T04:36:46;6.27;;;3.10;;
19519;SDS011;9904;52.246;20.898;2023-02-26T04:39:12;4.90;;;2.90;;
19519;SDS011;9904;52.246;20.898;2023-02-26T04:41:39;4.87;;;2.40;;
19519;SDS011;9904;52.246;20.898;2023-02-26T04:44:05;8.03;;;2.83;;
19519;SDS011;9904;52.246;20.898;2023-02-26T04:46:32;5.67;;;2.90;;
19519;SDS011;9904;52.246;20.898;2023-02-26T04:48:59;6.33;;;2.90;;
19519;SDS011;9904;52.246;20.898;2023-02-26T04:51:25;5.73;;;3.20;;
19519;SDS011;9904;52.246;20.898;2023-02-26T04:53:52;6.13;;;2.90;;
19519;SDS011;9904;52.246;20.898;2023-02-26T04:56:18;6.30;;;2.97;;
19519;SDS011;9904;52.246;20.898;2023-02-26T04:58:45;4.93;;;3.07;;
19519;SDS011;9904;52.246;20.898;2023-02-26T05:01:12;6.27;;;3.03;;
19519;SDS011;9904;52.246;20.898;2023-02-26T05:03:38;7.33;;;3.30;;
19519;SDS011;9904;52.246;20.898;2023-02-26T05:06:05;5.03;;;2.77;;
19519;SDS011;9904;52.246;20.898;2023-02-26T05:08:32;5.83;;;2.80;;
19519;SDS011;9904;52.246;20.898;2023-02-26T05:10:58;4.20;;;2.33;;
19519;SDS011;9904;52.246;20.898;2023-02-26T05:13:25;4.00;;;2.30;;
19519;SDS011;9904;52.246;20.898;2023-02-26T05:15:52;4.60;;;2.27;;
19519;SDS011;9904;52.246;20.898;2023-02-26T05:18:19;4.63;;;2.10;;
19519;SDS011;9904;52.246;20.898;2023-02-26T05:20:50;3.47;;;2.03;;
19519;SDS011;9904;52.246;20.898;2023-02-26T05:23:18;4.70;;;2.07;;
19519;SDS011;9904;52.246;20.898;2023-02-26T05:25:44;3.13;;;1.77;;
19519;SDS011;9904;52.246;20.898;2023-02-26T05:28:11;2.93;;;1.70;;
19519;SDS011;9904;52.246;20.898;2023-02-26T05:30:37;3.63;;;2.03;;
19519;SDS011;9904;52.246;20.898;2023-02-26T05:33:04;6.03;;;2.17;;
19519;SDS011;9904;52.246;20.898;2023-02-26T05:35:31;3.87;;;1.80;;
19519;SDS011;9904;52.246;20.898;2023-02-26T05:37:57;2.30;;;1.53;;
19519;SDS011;9904;52.246;20.898;2023-02-26T05:40:24;4.20;;;1.70;;
19519;SDS011;9904;52.246;20.898;2023-02-26T05:42:51;2.73;;;1.60;;
19519;SDS011;9904;52.246;20.898;2023-02-26T05:45:18;2.43;;;1.10;;
19519;SDS011;9904;52.246;20.898;2023-02-26T05:47:44;3.83;;;1.93;;
19519;SDS011;9904;52.246;20.898;2023-02-26T05:50:11;3.90;;;1.50;;
19519;SDS011;9904;52.246;20.898;2023-02-26T05:52:38;3.93;;;1.53;;
19519;SDS011;9904;52.246;20.898;2023-02-26T05:55:04;4.00;;;1.23;;
19519;SDS011;9904;52.246;20.898;2023-02-26T05:57:32;3.33;;;1.37;;
19519;SDS011;9904;52.246;20.898;2023-02-26T05:59:58;2.63;;;1.30;;
19519;SDS011;9904;52.246;20.898;2023-02-26T06:02:25;2.97;;;1.07;;
19519;SDS011;9904;52.246;20.898;2023-02-26T06:04:51;2.87;;;1.00;;
19519;SDS011;9904;52.246;20.898;2023-02-26T06:07:18;2.93;;;1.10;;
19519;SDS011;9904;52.246;20.898;2023-02-26T06:09:44;3.77;;;1.10;;
19519;SDS011;9904;52.246;20.898;2023-02-26T06:12:11;1.90;;;0.90;;
19519;SDS011;9904;52.246;20.898;2023-02-26T06:14:38;3.70;;;1.07;;
19519;SDS011;9904;52.246;20.898;2023-02-26T06:17:04;1.93;;;1.00;;
19519;SDS011;9904;52.246;20.898;2023-02-26T06:19:32;3.33;;;1.20;;
19519;SDS011;9904;52.246;20.898;2023-02-26T06:21:59;2.97;;;1.10;;
19519;SDS011;9904;52.246;20.898;2023-02-26T06:24:25;2.13;;;1.07;;
19519;SDS011;9904;52.246;20.898;2023-02-26T06:26:52;3.30;;;1.10;;
19519;SDS011;9904;52.246;20.898;2023-02-26T06:29:18;1.40;;;0.83;;
19519;SDS011;9904;52.246;20.898;2023-02-26T06:31:45;2.07;;;1.00;;
19519;SDS011;9904;52.246;20.898;2023-02-26T06:34:13;1.63;;;1.13;;
19519;SDS011;9904;52.246;20.898;2023-02-26T06:36:39;3.57;;;1.30;;
19519;SDS011;9904;52.246;20.898;2023-02-26T06:39:06;2.00;;;1.13;;
19519;SDS011;9904;52.246;20.898;2023-02-26T06:41:33;2.63;;;1.00;;
19519;SDS011;9904;52.246;20.898;2023-02-26T06:43:59;2.27;;;1.07;;
19519;SDS011;9904;52.246;20.898;2023-02-26T06:46:26;2.20;;;1.03;;
19519;SDS011;9904;52.246;20.898;2023-02-26T06:48:53;4.87;;;1.50;;
19519;SDS011;9904;52.246;20.898;2023-02-26T06:51:19;2.17;;;1.20;;
19519;SDS011;9904;52.246;20.898;2023-02-26T06:53:46;3.83;;;1.43;;
19519;SDS011;9904;52.246;20.898;2023-02-26T06:56:13;3.03;;;1.10;;
19519;SDS011;9904;52.246;20.898;2023-02-26T06:58:40;2.13;;;1.13;;
19519;SDS011;9904;52.246;20.898;2023-02-26T07:01:06;2.47;;;1.30;;
19519;SDS011;9904;52.246;20.898;2023-02-26T07:03:33;2.10;;;1.20;;
19519;SDS011;9904;52.246;20.898;2023-02-26T07:06:00;2.90;;;1.50;;
19519;SDS011;9904;52.246;20.898;2023-02-26T07:08:46;2.63;;;1.37;;
19519;SDS011;9904;52.246;20.898;2023-02-26T07:11:13;3.17;;;1.50;;
19519;SDS011;9904;52.246;20.898;2023-02-26T07:13:40;3.13;;;1.23;;
19519;SDS011;9904;52.246;20.898;2023-02-26T07:16:06;4.60;;;1.80;;
19519;SDS011;9904;52.246;20.898;2023-02-26T07:18:34;2.77;;;1.47;;
19519;SDS011;9904;52.246;20.898;2023-02-26T07:21:02;2.23;;;1.30;;
19519;SDS011;9904;52.246;20.898;2023-02-26T07:23:29;4.77;;;1.47;;
19519;SDS011;9904;52.246;20.898;2023-02-26T07:25:56;5.23;;;1.30;;
19519;SDS011;9904;52.246;20.898;2023-02-26T07:28:23;3.67;;;1.37;;
19519;SDS011;9904;52.246;20.898;2023-02-26T07:30:50;3.00;;;1.40;;
19519;SDS011;9904;52.246;20.898;2023-02-26T07:33:20;3.13;;;1.40;;
19519;SDS011;9904;52.246;20.898;2023-02-26T07:35:46;2.33;;;1.23;;
19519;SDS011;9904;52.246;20.898;2023-02-26T07:38:13;3.33;;;1.67;;
19519;SDS011;9904;52.246;20.898;2023-02-26T07:40:40;3.53;;;1.50;;
19519;SDS011;9904;52.246;20.898;2023-02-26T07:43:07;3.43;;;1.67;;
19519;SDS011;9904;52.246;20.898;2023-02-26T07:45:33;3.60;;;1.20;;
19519;SDS011;9904;52.246;20.898;2023-02-26T07:48:00;6.97;;;1.53;;
19519;SDS011;9904;52.246;20.898;2023-02-26T07:50:26;2.10;;;1.30;;
19519;SDS011;9904;52.246;20.898;2023-02-26T07:52:53;2.63;;;1.27;;
19519;SDS011;9904;52.246;20.898;2023-02-26T07:55:20;1.67;;;1.20;;
19519;SDS011;9904;52.246;20.898;2023-02-26T07:57:47;2.27;;;0.97;;
19519;SDS011;9904;52.246;20.898;2023-02-26T08:00:14;2.77;;;1.17;;
19519;SDS011;9904;52.246;20.898;2023-02-26T08:02:41;1.73;;;1.20;;
19519;SDS011;9904;52.246;20.898;2023-02-26T08:05:07;3.27;;;1.17;;
19519;SDS011;9904;52.246;20.898;2023-02-26T08:07:34;2.07;;;1.40;;
19519;SDS011;9904;52.246;20.898;2023-02-26T08:10:01;2.63;;;1.10;;
19519;SDS011;9904;52.246;20.898;2023-02-26T08:12:27;2.10;;;1.37;;
19519;SDS011;9904;52.246;20.898;2023-02-26T08:14:54;2.53;;;1.30;;
19519;SDS011;9904;52.246;20.898;2023-02-26T08:17:21;2.87;;;1.30;;
19519;SDS011;9904;52.246;20.898;2023-02-26T08:19:47;4.60;;;1.43;;
19519;SDS011;9904;52.246;20.898;2023-02-26T08:22:14;2.77;;;1.27;;
19519;SDS011;9904;52.246;20.898;2023-02-26T08:24:41;2.73;;;1.30;;
19519;SDS011;9904;52.246;20.898;2023-02-26T08:27:07;3.00;;;1.30;;
19519;SDS011;9904;52.246;20.898;2023-02-26T08:29:34;3.63;;;1.20;;
19519;SDS011;9904;52.246;20.898;2023-02-26T08:32:01;2.57;;;1.10;;
19519;SDS011;9904;52.246;20.898;2023-02-26T08:34:28;1.53;;;0.97;;
19519;SDS011;9904;52.246;20.898;2023-02-26T08:36:55;1.07;;;0.90;;
19519;SDS011;9904;52.246;20.898;2023-02-26T08:39:22;3.57;;;1.23;;
19519;SDS011;9904;52.246;20.898;2023-02-26T08:41:49;2.30;;;1.00;;
19519;SDS011;9904;52.246;20.898;2023-02-26T08:44:15;2.23;;;1.20;;
19519;SDS011;9904;52.246;20.898;2023-02-26T08:46:42;1.67;;;1.10;;
19519;SDS011;9904;52.246;20.898;2023-02-26T08:49:08;2.00;;;1.13;;
19519;SDS011;9904;52.246;20.898;2023-02-26T08:51:35;2.47;;;1.30;;
19519;SDS011;9904;52.246;20.898;2023-02-26T08:54:02;5.20;;;1.33;;
19519;SDS011;9904;52.246;20.898;2023-02-26T08:56:30;2.17;;;1.10;;
19519;SDS011;9904;52.246;20.898;2023-02-26T08:58:57;1.80;;;0.97;;
19519;SDS011;9904;52.246;20.898;2023-02-26T09:01:23;2.10;;;0.90;;
19519;SDS011;9904;52.246;20.898;2023-02-26T09:03:51;1.57;;;1.00;;
19519;SDS011;9904;52.246;20.898;2023-02-26T09:06:17;3.10;;;1.40;;
19519;SDS011;9904;52.246;20.898;2023-02-26T09:08:44;3.33;;;0.93;;
19519;SDS011;9904;52.246;20.898;2023-02-26T09:11:10;3.03;;;0.90;;
19519;SDS011;9904;52.246;20.898;2023-02-26T09:13:37;2.00;;;1.10;;
19519;SDS011;9904;52.246;20.898;2023-02-26T09:16:04;3.10;;;1.17;;
19519;SDS011;9904;52.246;20.898;2023-02-26T09:18:31;2.67;;;1.07;;
19519;SDS011;9904;52.246;20.898;2023-02-26T09:20:58;3.17;;;0.90;;
19519;SDS011;9904;52.246;20.898;2023-02-26T09:23:24;1.60;;;0.87;;
19519;SDS011;9904;52.246;20.898;2023-02-26T09:25:54;3.67;;;1.80;;
19519;SDS011;9904;52.246;20.898;2023-02-26T09:28:22;2.93;;;1.20;;
19519;SDS011;9904;52.246;20.898;2023-02-26T09:30:51;2.43;;;1.30;;
19519;SDS011;9904;52.246;20.898;2023-02-26T09:33:18;6.63;;;1.23;;
19519;SDS011;9904;52.246;20.898;2023-02-26T09:35:49;5.53;;;1.40;;
19519;SDS011;9904;52.246;20.898;2023-02-26T09:38:16;1.97;;;1.10;;
19519;SDS011;9904;52.246;20.898;2023-02-26T09:40:45;2.70;;;1.40;;
19519;SDS011;9904;52.246;20.898;2023-02-26T09:46:25;3.00;;;1.67;;
19519;SDS011;9904;52.246;20.898;2023-02-26T09:51:40;3.67;;;1.40;;
19519;SDS011;9904;52.246;20.898;2023-02-26T09:54:18;2.77;;;1.27;;
19519;SDS011;9904;52.246;20.898;2023-02-26T09:56:48;4.20;;;1.90;;
19519;SDS011;9904;52.246;20.898;2023-02-26T09:59:15;4.37;;;1.70;;
19519;SDS011;9904;52.246;20.898;2023-02-26T10:01:47;3.33;;;1.77;;
19519;SDS011;9904;52.246;20.898;2023-02-26T10:04:33;8.20;;;2.40;;
19519;SDS011;9904;52.246;20.898;2023-02-26T10:12:38;6.13;;;1.53;;
19519;SDS011;9904;52.246;20.898;2023-02-26T10:23:25;5.03;;;1.90;;
19519;SDS011;9904;52.246;20.898;2023-02-26T10:26:01;4.03;;;2.00;;
19519;SDS011;9904;52.246;20.898;2023-02-26T10:33:49;3.40;;;1.60;;
19519;SDS011;9904;52.246;20.898;2023-02-26T10:36:28;4.20;;;1.50;;
19519;SDS011;9904;52.246;20.898;2023-02-26T10:42:04;6.37;;;2.00;;
19519;SDS011;9904;52.246;20.898;2023-02-26T10:44:46;4.50;;;1.87;;
19519;SDS011;9904;52.246;20.898;2023-02-26T10:50:20;4.73;;;1.70;;
19519;SDS011;9904;52.246;20.898;2023-02-26T10:52:48;2.10;;;1.53;;
19519;SDS011;9904;52.246;20.898;2023-02-26T10:58:03;4.43;;;1.60;;
19519;SDS011;9904;52.246;20.898;2023-02-26T11:00:30;3.40;;;1.23;;
19519;SDS011;9904;52.246;20.898;2023-02-26T11:03:00;4.17;;;1.77;;
19519;SDS011;9904;52.246;20.898;2023-02-26T11:05:29;7.87;;;3.27;;
19519;SDS011;9904;52.246;20.898;2023-02-26T11:07:59;4.13;;;2.00;;
19519;SDS011;9904;52.246;20.898;2023-02-26T11:10:44;3.53;;;1.50;;
19519;SDS011;9904;52.246;20.898;2023-02-26T11:13:14;2.63;;;1.23;;
19519;SDS011;9904;52.246;20.898;2023-02-26T11:15:41;2.33;;;1.23;;
19519;SDS011;9904;52.246;20.898;2023-02-26T11:18:11;2.90;;;1.10;;
19519;SDS011;9904;52.246;20.898;2023-02-26T11:20:42;4.80;;;1.43;;
19519;SDS011;9904;52.246;20.898;2023-02-26T11:23:12;2.77;;;1.00;;
19519;SDS011;9904;52.246;20.898;2023-02-26T11:25:41;3.03;;;1.30;;
19519;SDS011;9904;52.246;20.898;2023-02-26T11:30:47;3.10;;;1.47;;
19519;SDS011;9904;52.246;20.898;2023-02-26T11:33:16;4.30;;;1.40;;
19519;SDS011;9904;52.246;20.898;2023-02-26T11:36:07;4.37;;;1.93;;
19519;SDS011;9904;52.246;20.898;2023-02-26T11:38:35;3.70;;;1.40;;
19519;SDS011;9904;52.246;20.898;2023-02-26T11:41:03;3.20;;;1.47;;
19519;SDS011;9904;52.246;20.898;2023-02-26T11:43:35;6.20;;;1.57;;
19519;SDS011;9904;52.246;20.898;2023-02-26T11:46:03;2.57;;;1.20;;
19519;SDS011;9904;52.246;20.898;2023-02-26T11:48:52;7.83;;;1.43;;
19519;SDS011;9904;52.246;20.898;2023-02-26T11:51:19;3.93;;;1.20;;
19519;SDS011;9904;52.246;20.898;2023-02-26T11:53:49;4.57;;;1.50;;
19519;SDS011;9904;52.246;20.898;2023-02-26T11:59:06;4.73;;;1.80;;
19519;SDS011;9904;52.246;20.898;2023-02-26T12:01:41;2.47;;;1.40;;
19519;SDS011;9904;52.246;20.898;2023-02-26T12:04:09;3.40;;;1.70;;
19519;SDS011;9904;52.246;20.898;2023-02-26T12:06:37;2.37;;;1.40;;
19519;SDS011;9904;52.246;20.898;2023-02-26T12:09:05;6.50;;;1.47;;
19519;SDS011;9904;52.246;20.898;2023-02-26T12:17:10;5.50;;;1.73;;
19519;SDS011;9904;52.246;20.898;2023-02-26T12:39:26;4.83;;;1.50;;
19519;SDS011;9904;52.246;20.898;2023-02-26T12:42:21;3.33;;;1.27;;
19519;SDS011;9904;52.246;20.898;2023-02-26T12:48:03;5.80;;;1.40;;
19519;SDS011;9904;52.246;20.898;2023-02-26T12:58:45;3.67;;;1.17;;
19519;SDS011;9904;52.246;20.898;2023-02-26T13:20:27;2.70;;;1.10;;
19519;SDS011;9904;52.246;20.898;2023-02-26T13:22:58;1.87;;;1.00;;
19519;SDS011;9904;52.246;20.898;2023-02-26T13:28:22;3.43;;;1.20;;
19519;SDS011;9904;52.246;20.898;2023-02-26T13:30:52;4.10;;;1.40;;
19519;SDS011;9904;52.246;20.898;2023-02-26T13:33:22;5.47;;;1.00;;
19519;SDS011;9904;52.246;20.898;2023-02-26T13:35:51;4.23;;;1.23;;
19519;SDS011;9904;52.246;20.898;2023-02-26T13:38:22;4.40;;;1.30;;
19519;SDS011;9904;52.246;20.898;2023-02-26T13:46:48;2.80;;;1.07;;
19519;SDS011;9904;52.246;20.898;2023-02-26T13:49:24;4.43;;;1.30;;
19519;SDS011;9904;52.246;20.898;2023-02-26T13:51:56;2.97;;;1.13;;
19519;SDS011;9904;52.246;20.898;2023-02-26T13:54:28;4.47;;;1.30;;
19519;SDS011;9904;52.246;20.898;2023-02-26T13:59:47;5.17;;;1.50;;
19519;SDS011;9904;52.246;20.898;2023-02-26T14:10:44;3.73;;;1.13;;
19519;SDS011;9904;52.246;20.898;2023-02-26T14:13:14;5.30;;;1.30;;
19519;SDS011;9904;52.246;20.898;2023-02-26T14:23:57;10.27;;;1.67;;
19519;SDS011;9904;52.246;20.898;2023-02-26T14:26:26;3.77;;;1.10;;
19519;SDS011;9904;52.246;20.898;2023-02-26T14:31:24;4.10;;;1.10;;
19519;SDS011;9904;52.246;20.898;2023-02-26T14:33:59;5.63;;;1.23;;
19519;SDS011;9904;52.246;20.898;2023-02-26T14:36:38;5.00;;;1.13;;
19519;SDS011;9904;52.246;20.898;2023-02-26T14:39:09;4.80;;;1.30;;
19519;SDS011;9904;52.246;20.898;2023-02-26T14:41:43;3.13;;;1.07;;
19519;SDS011;9904;52.246;20.898;2023-02-26T14:44:12;4.93;;;1.80;;
19519;SDS011;9904;52.246;20.898;2023-02-26T14:46:41;5.23;;;1.50;;
19519;SDS011;9904;52.246;20.898;2023-02-26T14:49:12;4.30;;;1.43;;
19519;SDS011;9904;52.246;20.898;2023-02-26T15:14:42;6.53;;;1.50;;
19519;SDS011;9904;52.246;20.898;2023-02-26T15:17:22;7.50;;;1.53;;
19519;SDS011;9904;52.246;20.898;2023-02-26T15:25:57;3.80;;;1.50;;
19519;SDS011;9904;52.246;20.898;2023-02-26T15:28:25;6.87;;;1.90;;
19519;SDS011;9904;52.246;20.898;2023-02-26T15:30:54;6.43;;;1.90;;
19519;SDS011;9904;52.246;20.898;2023-02-26T15:33:22;5.07;;;2.10;;
19519;SDS011;9904;52.246;20.898;2023-02-26T15:35:50;5.40;;;1.93;;
19519;SDS011;9904;52.246;20.898;2023-02-26T15:38:17;5.23;;;1.73;;
19519;SDS011;9904;52.246;20.898;2023-02-26T15:40:44;3.93;;;1.60;;
19519;SDS011;9904;52.246;20.898;2023-02-26T15:43:13;8.17;;;1.90;;
19519;SDS011;9904;52.246;20.898;2023-02-26T15:45:43;5.70;;;2.10;;
19519;SDS011;9904;52.246;20.898;2023-02-26T15:48:13;5.77;;;1.70;;
19519;SDS011;9904;52.246;20.898;2023-02-26T15:50:43;7.50;;;2.33;;
19519;SDS011;9904;52.246;20.898;2023-02-26T15:53:17;6.33;;;2.33;;
19519;SDS011;9904;52.246;20.898;2023-02-26T15:55:50;7.50;;;2.70;;
19519;SDS011;9904;52.246;20.898;2023-02-26T15:58:29;8.10;;;1.80;;
19519;SDS011;9904;52.246;20.898;2023-02-26T16:01:03;10.30;;;3.30;;
19519;SDS011;9904;52.246;20.898;2023-02-26T16:03:32;4.93;;;2.10;;
19519;SDS011;9904;52.246;20.898;2023-02-26T16:06:00;7.33;;;2.33;;
19519;SDS011;9904;52.246;20.898;2023-02-26T16:08:27;4.77;;;1.80;;
19519;SDS011;9904;52.246;20.898;2023-02-26T16:10:56;5.50;;;1.80;;
19519;SDS011;9904;52.246;20.898;2023-02-26T16:13:28;13.27;;;2.50;;
19519;SDS011;9904;52.246;20.898;2023-02-26T16:16:17;6.53;;;2.10;;
19519;SDS011;9904;52.246;20.898;2023-02-26T16:18:46;9.50;;;2.17;;
19519;SDS011;9904;52.246;20.898;2023-02-26T16:21:26;6.00;;;2.40;;
19519;SDS011;9904;52.246;20.898;2023-02-26T16:23:59;8.30;;;2.63;;
19519;SDS011;9904;52.246;20.898;2023-02-26T16:26:31;10.63;;;2.70;;
19519;SDS011;9904;52.246;20.898;2023-02-26T16:29:02;15.13;;;2.70;;
19519;SDS011;9904;52.246;20.898;2023-02-26T16:31:31;7.43;;;2.40;;
19519;SDS011;9904;52.246;20.898;2023-02-26T16:34:04;7.07;;;2.20;;
19519;SDS011;9904;52.246;20.898;2023-02-26T16:36:49;9.47;;;2.80;;
19519;SDS011;9904;52.246;20.898;2023-02-26T16:39:23;7.87;;;2.40;;
19519;SDS011;9904;52.246;20.898;2023-02-26T16:42:02;10.23;;;3.10;;
19519;SDS011;9904;52.246;20.898;2023-02-26T16:44:39;8.60;;;2.90;;
19519;SDS011;9904;52.246;20.898;2023-02-26T16:47:11;9.97;;;2.97;;
19519;SDS011;9904;52.246;20.898;2023-02-26T16:49:39;13.07;;;3.83;;
19519;SDS011;9904;52.246;20.898;2023-02-26T16:52:06;8.57;;;3.60;;
19519;SDS011;9904;52.246;20.898;2023-02-26T16:54:39;8.77;;;2.90;;
19519;SDS011;9904;52.246;20.898;2023-02-26T16:57:12;11.90;;;3.50;;
19519;SDS011;9904;52.246;20.898;2023-02-26T16:59:47;11.57;;;3.77;;
19519;SDS011;9904;52.246;20.898;2023-02-26T17:02:21;9.90;;;3.37;;
19519;SDS011;9904;52.246;20.898;2023-02-26T17:04:52;10.90;;;3.73;;
19519;SDS011;9904;52.246;20.898;2023-02-26T17:07:25;9.50;;;3.60;;
19519;SDS011;9904;52.246;20.898;2023-02-26T17:09:57;12.40;;;3.77;;
19519;SDS011;9904;52.246;20.898;2023-02-26T17:12:29;14.20;;;4.30;;
19519;SDS011;9904;52.246;20.898;2023-02-26T17:15:12;19.57;;;4.70;;
19519;SDS011;9904;52.246;20.898;2023-02-26T17:17:43;13.13;;;4.27;;
19519;SDS011;9904;52.246;20.898;2023-02-26T17:20:10;17.07;;;5.03;;
19519;SDS011;9904;52.246;20.898;2023-02-26T17:22:37;15.50;;;5.50;;
19519;SDS011;9904;52.246;20.898;2023-02-26T17:25:04;14.57;;;4.73;;
19519;SDS011;9904;52.246;20.898;2023-02-26T17:27:32;16.23;;;5.40;;
19519;SDS011;9904;52.246;20.898;2023-02-26T17:30:03;17.90;;;5.43;;
19519;SDS011;9904;52.246;20.898;2023-02-26T17:32:31;14.33;;;4.83;;
19519;SDS011;9904;52.246;20.898;2023-02-26T17:34:58;13.30;;;5.33;;
19519;SDS011;9904;52.246;20.898;2023-02-26T17:37:29;16.70;;;5.60;;
19519;SDS011;9904;52.246;20.898;2023-02-26T17:39:58;15.10;;;5.57;;
19519;SDS011;9904;52.246;20.898;2023-02-26T17:42:25;15.57;;;5.87;;
19519;SDS011;9904;52.246;20.898;2023-02-26T17:44:52;17.93;;;6.30;;
19519;SDS011;9904;52.246;20.898;2023-02-26T17:47:24;17.80;;;5.80;;
19519;SDS011;9904;52.246;20.898;2023-02-26T17:49:52;18.90;;;6.90;;
19519;SDS011;9904;52.246;20.898;2023-02-26T17:52:19;24.53;;;8.13;;
19519;SDS011;9904;52.246;20.898;2023-02-26T17:54:46;24.47;;;7.87;;
19519;SDS011;9904;52.246;20.898;2023-02-26T17:57:17;20.57;;;7.23;;
19519;SDS011;9904;52.246;20.898;2023-02-26T17:59:45;23.37;;;6.90;;
19519;SDS011;9904;52.246;20.898;2023-02-26T18:02:16;21.13;;;6.80;;
19519;SDS011;9904;52.246;20.898;2023-02-26T18:04:43;19.63;;;7.37;;
19519;SDS011;9904;52.246;20.898;2023-02-26T18:07:13;28.20;;;8.07;;
19519;SDS011;9904;52.246;20.898;2023-02-26T18:09:42;22.40;;;7.23;;
19519;SDS011;9904;52.246;20.898;2023-02-26T18:12:11;17.20;;;7.13;;
19519;SDS011;9904;52.246;20.898;2023-02-26T18:14:39;18.57;;;6.93;;
19519;SDS011;9904;52.246;20.898;2023-02-26T18:17:08;25.60;;;9.50;;
19519;SDS011;9904;52.246;20.898;2023-02-26T18:19:37;19.80;;;7.23;;
19519;SDS011;9904;52.246;20.898;2023-02-26T18:22:04;19.57;;;8.20;;
19519;SDS011;9904;52.246;20.898;2023-02-26T18:24:30;22.53;;;7.53;;
19519;SDS011;9904;52.246;20.898;2023-02-26T18:26:57;18.77;;;6.93;;
19519;SDS011;9904;52.246;20.898;2023-02-26T18:29:24;17.63;;;6.30;;
19519;SDS011;9904;52.246;20.898;2023-02-26T18:31:51;17.97;;;6.80;;
19519;SDS011;9904;52.246;20.898;2023-02-26T18:34:18;13.90;;;5.07;;